Terminal Aerodrome Forecast
Issued by NWS Knoxville/Tri Cities, TN

Home | Current Version | Previous Version | Text Only | Print | Product List | Glossary On
Versions: 1 2 3 4 5 6 7 8 9 10 11 12 13 14 15 16 17 18 19 20 21 22 23 24 25 26 27 28 29 30
000
FTUS44 KMRX 010542
TAFTRI
TAF
KTRI 010542Z 0106/0206 00000KT P6SM VCSH OVC120
     FM010800 00000KT P6SM -RA OVC080
     FM011000 00000KT 6SM -RA BR BKN040
     FM011500 VRB03KT P6SM BKN040
     FM011800 07004KT P6SM SCT040 BKN100
     FM020100 00000KT P6SM SCT100
     FM020400 00000KT 4SM BR SCT100=

USA.gov is the U.S. government's official web portal to all federal, state and local government web resources and services.